createdAt,value
2017-09-04T00:02:08.996Z,4.55
2017-09-04T00:04:36.570Z,5.77
2017-09-04T00:07:04.138Z,5.13
2017-09-04T00:09:31.734Z,5.07
2017-09-04T00:11:59.321Z,5.03
2017-09-04T00:14:26.908Z,4.80
2017-09-04T00:16:54.493Z,4.73
2017-09-04T00:19:22.093Z,5.27
2017-09-04T00:21:49.774Z,4.83
2017-09-04T00:24:17.747Z,4.37
2017-09-04T00:26:45.344Z,4.50
2017-09-04T00:29:12.927Z,4.87
2017-09-04T00:31:40.553Z,4.20
2017-09-04T00:34:08.181Z,4.33
2017-09-04T00:36:35.835Z,4.30
2017-09-04T00:39:03.475Z,4.47
2017-09-04T00:41:31.805Z,4.53
2017-09-04T00:43:59.395Z,4.40
2017-09-04T00:46:26.966Z,4.50
2017-09-04T00:48:54.519Z,4.03
2017-09-04T00:51:22.075Z,4.78
2017-09-04T00:53:50.443Z,4.40
2017-09-04T00:56:18.063Z,4.40
2017-09-04T00:58:45.655Z,4.47
2017-09-04T01:01:13.224Z,4.10
2017-09-04T01:03:40.807Z,3.90
2017-09-04T01:06:08.389Z,4.30
2017-09-04T01:08:35.952Z,3.60
2017-09-04T01:11:03.588Z,4.20
2017-09-04T01:13:31.230Z,4.20
2017-09-04T01:15:58.809Z,3.57
2017-09-04T01:18:26.382Z,3.83
2017-09-04T01:20:54.937Z,3.90
2017-09-04T01:23:22.527Z,3.67
2017-09-04T01:25:50.102Z,3.70
2017-09-04T01:28:17.685Z,3.60
2017-09-04T01:30:45.265Z,3.90
2017-09-04T01:33:12.815Z,4.00
2017-09-04T01:35:40.417Z,3.80
2017-09-04T01:38:07.958Z,4.20
2017-09-04T01:40:35.534Z,2.97
2017-09-04T01:43:04.004Z,3.53
2017-09-04T01:45:31.595Z,3.47
2017-09-04T01:47:59.163Z,3.43
2017-09-04T01:50:26.737Z,3.53
2017-09-04T01:52:54.305Z,2.67
2017-09-04T01:55:21.908Z,3.60
2017-09-04T01:57:49.492Z,3.63
2017-09-04T02:00:17.074Z,3.30
2017-09-04T02:02:44.653Z,3.43
2017-09-04T02:05:12.226Z,3.03
2017-09-04T02:07:39.812Z,3.57
2017-09-04T02:10:07.398Z,3.33
2017-09-04T02:12:34.946Z,3.13
2017-09-04T02:15:02.543Z,3.10
2017-09-04T02:17:30.101Z,3.43
2017-09-04T02:19:58.442Z,3.80
2017-09-04T02:22:26.010Z,3.40
2017-09-04T02:24:53.594Z,3.53
2017-09-04T02:27:21.153Z,3.00
2017-09-04T02:29:48.713Z,2.93
2017-09-04T02:32:16.279Z,3.07
2017-09-04T02:34:43.848Z,2.83
2017-09-04T02:37:11.412Z,2.67
2017-09-04T02:39:39.017Z,2.65
2017-09-04T02:42:06.586Z,2.67
2017-09-04T02:44:34.164Z,3.17
2017-09-04T02:47:01.746Z,2.87
2017-09-04T02:49:29.335Z,3.30
2017-09-04T02:51:56.903Z,3.20
2017-09-04T02:54:24.782Z,3.10
2017-09-04T02:56:52.351Z,2.90
2017-09-04T02:59:19.910Z,2.97
2017-09-04T03:01:47.489Z,2.83
2017-09-04T03:04:15.809Z,3.17
2017-09-04T03:06:43.385Z,3.30
2017-09-04T03:09:10.945Z,3.50
2017-09-04T03:11:38.521Z,2.87
2017-09-04T03:14:06.077Z,3.22
2017-09-04T03:16:33.699Z,2.77
2017-09-04T03:19:01.276Z,3.07
2017-09-04T03:21:28.844Z,2.90
2017-09-04T03:23:56.415Z,2.90
2017-09-04T03:26:24.028Z,3.23
2017-09-04T03:28:51.590Z,3.07
2017-09-04T03:31:19.163Z,2.80
2017-09-04T03:33:46.725Z,3.20
2017-09-04T03:36:15.054Z,3.10
2017-09-04T03:38:43.392Z,4.00
2017-09-04T03:41:10.954Z,2.83
2017-09-04T03:43:38.511Z,2.58
2017-09-04T03:46:06.526Z,2.97
2017-09-04T03:48:34.100Z,3.20
2017-09-04T03:51:01.704Z,3.13
2017-09-04T03:53:29.263Z,3.10
2017-09-04T03:55:56.852Z,2.97
2017-09-04T03:58:25.196Z,3.33
2017-09-04T04:00:52.769Z,3.00
2017-09-04T04:03:20.635Z,3.17
2017-09-04T04:05:48.221Z,3.10
2017-09-04T04:08:16.563Z,3.33
2017-09-04T04:10:44.160Z,3.83
2017-09-04T04:13:12.529Z,3.03
2017-09-04T04:15:40.130Z,3.17
2017-09-04T04:18:07.689Z,2.80
2017-09-04T04:20:35.275Z,3.30
2017-09-04T04:23:02.825Z,2.80
2017-09-04T04:25:30.831Z,3.20
2017-09-04T04:27:59.172Z,2.83
2017-09-04T04:30:26.729Z,3.10
2017-09-04T04:32:54.295Z,3.40
2017-09-04T04:35:21.846Z,2.90
2017-09-04T04:37:49.435Z,2.70
2017-09-04T04:40:17.039Z,2.90
2017-09-04T04:42:44.600Z,3.33
2017-09-04T04:45:12.173Z,3.20
2017-09-04T04:47:39.746Z,3.17
2017-09-04T04:50:07.962Z,3.03
2017-09-04T04:52:36.300Z,2.93
2017-09-04T04:55:03.845Z,3.20
2017-09-04T04:57:31.456Z,2.97
2017-09-04T04:59:59.041Z,3.20
2017-09-04T05:02:26.618Z,3.37
2017-09-04T05:04:54.177Z,3.00
2017-09-04T05:07:21.831Z,3.20
2017-09-04T05:09:50.158Z,3.00
2017-09-04T05:12:17.758Z,3.60
2017-09-04T05:14:45.326Z,3.30
2017-09-04T05:17:12.900Z,3.22
2017-09-04T05:19:40.460Z,3.60
2017-09-04T05:22:08.295Z,2.75
2017-09-04T05:24:35.866Z,3.17
2017-09-04T05:27:03.447Z,3.20
2017-09-04T05:29:31.024Z,3.57
2017-09-04T05:31:58.596Z,3.60
2017-09-04T05:34:26.170Z,3.30
2017-09-04T05:36:53.751Z,3.72
2017-09-04T05:39:21.323Z,3.50
2017-09-04T05:41:48.884Z,4.00
2017-09-04T05:44:16.435Z,4.17
2017-09-04T05:46:44.043Z,4.10
2017-09-04T05:49:11.600Z,4.23
2017-09-04T05:51:39.172Z,3.53
2017-09-04T05:54:06.732Z,3.40
2017-09-04T05:56:35.081Z,4.33
2017-09-04T05:59:02.644Z,3.77
2017-09-04T06:01:30.226Z,3.70
2017-09-04T06:03:58.560Z,3.90
2017-09-04T06:06:26.158Z,3.70
2017-09-04T06:08:53.739Z,3.70
2017-09-04T06:11:21.306Z,2.97
2017-09-04T06:13:48.938Z,3.43
2017-09-04T06:16:16.503Z,3.00
2017-09-04T06:18:44.088Z,3.50
2017-09-04T06:21:11.655Z,2.97
2017-09-04T06:23:39.220Z,3.83
2017-09-04T06:26:06.784Z,3.50
2017-09-04T06:28:34.363Z,3.30
2017-09-04T06:31:01.927Z,3.47
2017-09-04T06:33:29.499Z,3.13
2017-09-04T06:35:57.074Z,3.60
2017-09-04T06:38:24.683Z,3.17
2017-09-04T06:40:52.252Z,2.97
2017-09-04T06:43:19.865Z,2.83
2017-09-04T06:45:47.456Z,3.90
2017-09-04T06:48:15.038Z,3.60
2017-09-04T06:50:42.684Z,3.30
2017-09-04T06:53:10.290Z,3.10
2017-09-04T06:55:38.645Z,3.90
2017-09-04T06:58:06.229Z,3.20
2017-09-04T07:00:33.835Z,3.50
2017-09-04T07:03:01.451Z,3.60
2017-09-04T07:05:29.028Z,3.12
2017-09-04T07:07:56.602Z,3.57
2017-09-04T07:10:24.199Z,2.97
2017-09-04T07:12:51.779Z,3.23
2017-09-04T07:15:19.376Z,4.35
2017-09-04T07:17:46.959Z,3.53
2017-09-04T07:20:14.530Z,3.80
2017-09-04T07:22:42.130Z,3.40
2017-09-04T07:25:10.622Z,3.65
2017-09-04T07:27:38.300Z,3.67
2017-09-04T07:30:05.879Z,3.15
2017-09-04T07:32:33.466Z,3.30
2017-09-04T07:35:01.064Z,3.83
2017-09-04T07:37:28.660Z,3.62
2017-09-04T07:39:56.301Z,2.70
2017-09-04T07:42:23.889Z,3.40
2017-09-04T07:44:51.511Z,2.97
2017-09-04T07:47:19.089Z,2.73
2017-09-04T07:49:46.691Z,3.13
2017-09-04T07:52:14.297Z,3.05
2017-09-04T07:54:41.930Z,3.47
2017-09-04T07:57:09.491Z,3.40
2017-09-04T07:59:37.067Z,3.27
2017-09-04T08:02:04.654Z,2.80
2017-09-04T08:04:32.238Z,2.93
2017-09-04T08:06:59.835Z,2.87
2017-09-04T08:09:27.406Z,3.20
2017-09-04T08:11:55.015Z,3.30
2017-09-04T08:14:22.621Z,2.60
2017-09-04T08:16:50.260Z,3.90
2017-09-04T08:19:18.659Z,3.30
2017-09-04T08:21:46.232Z,2.80
2017-09-04T08:24:13.843Z,3.00
2017-09-04T08:26:41.468Z,2.73
2017-09-04T08:29:09.133Z,3.13
2017-09-04T08:31:36.747Z,2.72
2017-09-04T08:34:04.353Z,2.37
2017-09-04T08:36:31.998Z,2.28
2017-09-04T08:38:59.597Z,2.50
2017-09-04T08:41:27.198Z,3.00
2017-09-04T08:43:54.870Z,2.20
2017-09-04T08:46:22.449Z,2.57
2017-09-04T08:48:50.055Z,2.10
2017-09-04T08:51:17.650Z,2.07
2017-09-04T08:53:45.575Z,2.13
2017-09-04T08:56:13.875Z,2.30
2017-09-04T08:58:41.477Z,2.47
2017-09-04T09:01:09.084Z,2.10
2017-09-04T09:03:36.741Z,2.15
2017-09-04T09:06:04.340Z,2.40
2017-09-04T09:08:31.951Z,2.40
2017-09-04T09:10:59.560Z,2.23
2017-09-04T09:13:27.164Z,2.42
2017-09-04T09:15:54.752Z,2.00
2017-09-04T09:18:22.327Z,2.00
2017-09-04T09:20:50.007Z,2.40
2017-09-04T09:23:18.506Z,2.50
2017-09-04T09:25:46.217Z,2.80
2017-09-04T09:28:13.783Z,4.50
2017-09-04T09:30:41.388Z,1.80
2017-09-04T09:33:08.955Z,2.00
2017-09-04T09:35:36.547Z,2.30
2017-09-04T09:38:04.148Z,1.50
2017-09-04T09:40:31.715Z,2.17
2017-09-04T09:42:59.289Z,2.35
2017-09-04T09:45:26.884Z,2.00
2017-09-04T09:47:54.461Z,2.40
2017-09-04T09:50:22.048Z,2.20
2017-09-04T09:52:49.616Z,2.13
2017-09-04T09:55:17.205Z,2.10
2017-09-04T09:57:45.547Z,1.90
2017-09-04T10:00:14.468Z,1.90
2017-09-04T10:02:42.049Z,2.20
2017-09-04T10:05:09.642Z,1.97
2017-09-04T10:07:37.211Z,1.93
2017-09-04T10:10:04.794Z,1.87
2017-09-04T10:12:33.175Z,2.10
2017-09-04T10:15:00.757Z,1.90
2017-09-04T10:17:28.318Z,1.97
2017-09-04T10:19:55.920Z,2.20
2017-09-04T10:22:23.502Z,1.83
2017-09-04T10:24:51.129Z,1.80
2017-09-04T10:27:18.715Z,1.80
2017-09-04T10:29:46.297Z,1.83
2017-09-04T10:32:14.078Z,1.85
2017-09-04T10:34:41.676Z,2.27
2017-09-04T10:37:09.791Z,2.10
2017-09-04T10:39:38.174Z,1.80
2017-09-04T10:42:05.801Z,2.10
2017-09-04T10:44:33.405Z,1.97
2017-09-04T10:47:02.053Z,2.33
2017-09-04T10:49:29.629Z,2.40
2017-09-04T10:51:57.982Z,2.10
2017-09-04T10:54:25.575Z,2.17
2017-09-04T10:56:53.148Z,2.53
2017-09-04T10:59:20.731Z,1.63
2017-09-04T11:01:48.302Z,1.80
2017-09-04T11:04:15.898Z,1.87
2017-09-04T11:06:43.481Z,1.90
2017-09-04T11:09:11.342Z,2.47
2017-09-04T11:11:39.702Z,2.80
2017-09-04T11:14:07.265Z,2.47
2017-09-04T11:16:35.609Z,2.00
2017-09-04T11:19:03.382Z,1.60
2017-09-04T11:21:31.061Z,2.27
2017-09-04T11:23:58.624Z,2.20
2017-09-04T11:26:26.195Z,2.10
2017-09-04T11:28:53.779Z,2.80
2017-09-04T11:31:21.702Z,2.50
2017-09-04T11:33:49.261Z,2.77
2017-09-04T11:36:16.844Z,2.67
2017-09-04T11:38:44.428Z,2.57
2017-09-04T11:41:12.005Z,2.97
2017-09-04T11:43:39.641Z,2.97
2017-09-04T11:46:07.344Z,2.63
2017-09-04T11:48:34.999Z,2.97
2017-09-04T11:51:02.624Z,2.30
2017-09-04T11:53:30.689Z,2.60
2017-09-04T11:55:58.365Z,2.97
2017-09-04T11:58:26.021Z,2.70
2017-09-04T12:00:53.709Z,3.40
2017-09-04T12:03:21.370Z,3.23
2017-09-04T12:05:49.727Z,2.20
2017-09-04T12:08:17.335Z,3.10
2017-09-04T12:10:44.990Z,2.90
2017-09-04T12:13:12.656Z,2.83
2017-09-04T12:15:40.633Z,2.60
2017-09-04T12:18:08.266Z,2.95
2017-09-04T12:20:35.909Z,2.87
2017-09-04T12:23:03.638Z,2.23
2017-09-04T12:25:31.285Z,3.10
2017-09-04T12:27:58.943Z,3.30
2017-09-04T12:30:27.379Z,2.87
2017-09-04T12:32:55.037Z,2.40
2017-09-04T12:35:22.738Z,2.70
2017-09-04T12:37:51.200Z,2.90
2017-09-04T12:40:18.825Z,2.40
2017-09-04T12:42:46.521Z,2.33
2017-09-04T12:45:14.094Z,2.47
2017-09-04T12:47:41.709Z,2.67
2017-09-04T12:50:10.631Z,3.03
2017-09-04T12:52:38.202Z,2.77
2017-09-04T12:55:05.856Z,2.50
2017-09-04T12:57:33.554Z,2.90
2017-09-04T13:00:01.155Z,2.33
2017-09-04T13:02:28.725Z,3.23
2017-09-04T13:04:56.360Z,3.30
2017-09-04T13:07:24.727Z,5.10
2017-09-04T13:09:52.370Z,3.07
2017-09-04T13:12:21.830Z,2.90
2017-09-04T13:14:55.103Z,3.07
2017-09-04T13:17:28.257Z,3.30
2017-09-04T13:20:02.428Z,3.73
2017-09-04T13:22:35.546Z,2.50
2017-09-04T13:25:08.795Z,2.27
2017-09-04T13:27:42.251Z,3.00
2017-09-04T13:33:11.583Z,2.67
2017-09-04T13:35:44.849Z,2.33
2017-09-04T13:38:18.252Z,2.30
2017-09-04T13:40:51.545Z,1.90
2017-09-04T13:43:24.813Z,1.53
2017-09-04T13:48:54.902Z,2.00
2017-09-04T13:51:40.345Z,1.30
2017-09-04T13:54:13.743Z,2.07
2017-09-04T13:56:45.322Z,1.73
2017-09-04T14:12:51.136Z,1.90
2017-09-04T14:15:30.558Z,2.03
2017-09-04T14:18:03.867Z,2.20
2017-09-04T14:20:31.529Z,1.60
2017-09-04T14:22:59.099Z,1.67
2017-09-04T14:25:26.666Z,1.83
2017-09-04T14:27:54.251Z,2.00
2017-09-04T14:30:21.872Z,1.97
2017-09-04T14:32:49.897Z,1.50
2017-09-04T14:35:17.528Z,1.47
2017-09-04T14:37:45.155Z,1.77
2017-09-04T14:40:23.435Z,1.57
2017-09-04T14:42:55.372Z,2.07
2017-09-04T14:45:23.468Z,1.60
2017-09-04T14:47:51.690Z,1.50
2017-09-04T14:50:19.276Z,1.77
2017-09-04T14:52:46.848Z,1.23
2017-09-04T14:55:14.435Z,1.43
2017-09-04T14:57:42.777Z,1.30
2017-09-04T15:00:10.359Z,1.20
2017-09-04T15:02:37.951Z,1.10
2017-09-04T15:05:05.838Z,1.30
2017-09-04T15:07:33.434Z,1.30
2017-09-04T15:10:01.018Z,1.20
2017-09-04T15:12:29.397Z,1.27
2017-09-04T15:14:56.950Z,1.27
2017-09-04T15:17:24.568Z,1.50
2017-09-04T15:19:52.140Z,1.40
2017-09-04T15:22:19.781Z,1.30
2017-09-04T15:24:48.368Z,1.13
2017-09-04T15:27:16.561Z,1.30
2017-09-04T15:29:44.154Z,1.20
2017-09-04T15:32:11.750Z,1.20
2017-09-04T15:34:39.329Z,1.27
2017-09-04T15:37:06.919Z,1.37
2017-09-04T15:39:34.506Z,1.53
2017-09-04T15:42:02.103Z,1.40
2017-09-04T15:44:29.713Z,1.00
2017-09-04T15:46:57.416Z,1.27
2017-09-04T15:49:25.286Z,1.43
2017-09-04T15:51:52.857Z,1.30
2017-09-04T15:54:20.425Z,1.50
2017-09-04T15:56:47.996Z,1.40
2017-09-04T15:59:15.552Z,1.20
2017-09-04T16:01:43.431Z,1.27
2017-09-04T16:04:11.000Z,2.10
2017-09-04T16:06:38.961Z,1.43
2017-09-04T16:09:06.578Z,1.63
2017-09-04T16:11:34.148Z,2.03
2017-09-04T16:14:04.371Z,1.60
2017-09-04T16:16:33.319Z,1.70
2017-09-04T16:19:02.471Z,1.37
2017-09-04T16:21:30.925Z,1.43
2017-09-04T16:27:01.715Z,1.50
2017-09-04T16:29:33.008Z,1.30
2017-09-04T16:32:00.590Z,1.70
2017-09-04T16:34:30.058Z,1.63
2017-09-04T16:40:03.182Z,1.57
2017-09-04T16:42:37.291Z,1.40
2017-09-04T16:45:05.800Z,1.40
2017-09-04T16:47:51.340Z,1.70
2017-09-04T16:53:20.937Z,1.60
2017-09-04T16:55:52.976Z,1.80
2017-09-04T16:58:22.197Z,1.60
2017-09-04T17:00:49.834Z,1.43
2017-09-04T17:03:17.500Z,1.77
2017-09-04T17:05:45.144Z,1.60
2017-09-04T17:17:20.123Z,1.83
2017-09-04T17:20:02.720Z,1.83
2017-09-04T17:22:31.571Z,2.17
2017-09-04T17:25:01.149Z,2.00
2017-09-04T17:27:30.577Z,1.93
2017-09-04T17:29:58.985Z,2.20
2017-09-04T17:32:34.654Z,2.00
2017-09-04T17:35:05.522Z,2.03
2017-09-04T17:37:33.207Z,2.47
2017-09-04T17:40:00.846Z,2.33
2017-09-04T17:42:28.549Z,2.87
2017-09-04T17:44:56.213Z,3.40
2017-09-04T17:47:23.894Z,3.10
2017-09-04T17:49:51.514Z,2.10
2017-09-04T17:52:19.090Z,2.00
2017-09-04T17:54:46.787Z,1.70
2017-09-04T17:57:15.177Z,1.80
2017-09-04T17:59:42.926Z,2.15
2017-09-04T18:02:10.582Z,1.97
2017-09-04T18:04:38.267Z,2.30
2017-09-04T18:07:05.857Z,1.93
2017-09-04T18:09:33.489Z,2.40
2017-09-04T18:12:01.307Z,2.40
2017-09-04T18:14:28.877Z,3.40
2017-09-04T18:16:56.527Z,2.67
2017-09-04T18:19:32.325Z,2.30
2017-09-04T18:22:00.792Z,2.43
2017-09-04T18:24:28.369Z,2.27
2017-09-04T18:26:56.762Z,2.00
2017-09-04T18:29:25.194Z,1.80
2017-09-04T18:31:56.867Z,2.27
2017-09-04T18:34:29.740Z,2.53
2017-09-04T18:37:03.222Z,2.40
2017-09-04T18:39:30.798Z,2.30
2017-09-04T18:41:58.412Z,2.40
2017-09-04T18:44:25.991Z,2.47
2017-09-04T18:46:53.627Z,2.40
2017-09-04T18:49:21.213Z,2.50
2017-09-04T18:51:56.288Z,2.27
2017-09-04T18:54:30.358Z,3.10
2017-09-04T18:56:57.962Z,4.17
2017-09-04T18:59:26.317Z,3.17
2017-09-04T19:01:53.928Z,3.00
2017-09-04T19:04:21.537Z,2.73
2017-09-04T19:06:49.125Z,2.57
2017-09-04T19:09:16.820Z,2.70
2017-09-04T19:11:44.446Z,2.77
2017-09-04T19:14:12.034Z,3.27
2017-09-04T19:16:39.662Z,4.75
2017-09-04T19:19:07.226Z,5.00
2017-09-04T19:21:34.825Z,6.73
2017-09-04T19:24:02.440Z,3.97
2017-09-04T19:26:30.033Z,3.80
2017-09-04T19:28:57.633Z,4.80
2017-09-04T19:31:25.243Z,4.33
2017-09-04T19:33:52.823Z,4.43
2017-09-04T19:36:20.441Z,4.80
2017-09-04T19:38:48.804Z,5.10
2017-09-04T19:41:23.322Z,4.20
2017-09-04T19:43:50.925Z,3.23
2017-09-04T19:46:18.807Z,3.70
2017-09-04T19:48:46.419Z,2.80
2017-09-04T19:51:13.982Z,2.90
2017-09-04T19:53:41.564Z,3.07
2017-09-04T19:56:09.153Z,2.90
2017-09-04T19:58:36.744Z,2.90
2017-09-04T20:01:04.327Z,3.05
2017-09-04T20:03:31.925Z,3.10
2017-09-04T20:05:59.495Z,3.00
2017-09-04T20:08:27.065Z,3.40
2017-09-04T20:10:54.655Z,2.90
2017-09-04T20:13:22.725Z,3.20
2017-09-04T20:15:51.205Z,3.13
2017-09-04T20:18:19.552Z,2.40
2017-09-04T20:20:47.142Z,2.97
2017-09-04T20:23:14.723Z,3.07
2017-09-04T20:25:42.330Z,2.73
2017-09-04T20:28:09.924Z,2.90
2017-09-04T20:30:38.267Z,3.00
2017-09-04T20:33:05.835Z,3.60
2017-09-04T20:35:46.412Z,3.50
2017-09-04T20:38:13.978Z,2.80
2017-09-04T20:40:41.848Z,3.25
2017-09-04T20:43:09.413Z,3.53
2017-09-04T20:45:36.994Z,3.22
2017-09-04T20:48:04.600Z,4.20
2017-09-04T20:50:32.161Z,3.83
2017-09-04T20:52:59.761Z,4.20
2017-09-04T20:55:27.336Z,3.23
2017-09-04T20:57:55.235Z,3.50
2017-09-04T21:00:22.804Z,3.73
2017-09-04T21:02:50.410Z,3.90
2017-09-04T21:05:18.011Z,4.03
2017-09-04T21:07:45.607Z,3.90
2017-09-04T21:10:13.981Z,4.00
2017-09-04T21:12:41.582Z,3.93
2017-09-04T21:15:09.192Z,3.87
2017-09-04T21:17:36.764Z,3.20
2017-09-04T21:20:04.710Z,3.93
2017-09-04T21:22:32.284Z,3.63
2017-09-04T21:25:00.841Z,3.80
2017-09-04T21:27:31.810Z,3.97
2017-09-04T21:29:59.675Z,3.43
2017-09-04T21:32:27.286Z,4.57
2017-09-04T21:34:54.849Z,3.80
2017-09-04T21:37:22.783Z,3.40
2017-09-04T21:39:50.421Z,5.00
2017-09-04T21:42:18.246Z,4.53
2017-09-04T21:44:46.640Z,3.93
2017-09-04T21:47:14.203Z,4.60
2017-09-04T21:49:41.792Z,3.90
2017-09-04T21:52:09.370Z,4.10
2017-09-04T21:54:36.965Z,3.77
2017-09-04T21:57:04.520Z,4.03
2017-09-04T21:59:32.094Z,4.00
2017-09-04T22:01:59.684Z,4.03
2017-09-04T22:04:28.035Z,3.70
2017-09-04T22:06:55.711Z,3.60
2017-09-04T22:09:23.293Z,4.22
2017-09-04T22:11:50.908Z,4.20
2017-09-04T22:14:18.464Z,4.00
2017-09-04T22:16:46.056Z,4.40
2017-09-04T22:19:13.628Z,3.90
2017-09-04T22:21:41.551Z,4.43
2017-09-04T22:24:09.128Z,4.00
2017-09-04T22:26:37.482Z,3.60
2017-09-04T22:29:05.077Z,4.10
2017-09-04T22:31:33.630Z,3.80
2017-09-04T22:34:01.214Z,4.00
2017-09-04T22:36:28.785Z,3.93
2017-09-04T22:38:56.360Z,4.00
2017-09-04T22:41:23.940Z,3.47
2017-09-04T22:43:51.888Z,4.23
2017-09-04T22:46:19.459Z,3.70
2017-09-04T22:48:47.050Z,4.07
2017-09-04T22:51:15.430Z,4.33
2017-09-04T22:53:43.045Z,3.60
2017-09-04T22:56:10.649Z,3.93
2017-09-04T22:58:38.223Z,4.40
2017-09-04T23:01:05.819Z,3.90
2017-09-04T23:03:33.730Z,3.62
2017-09-04T23:06:02.085Z,3.53
2017-09-04T23:08:30.409Z,4.10
2017-09-04T23:10:58.393Z,4.23
2017-09-04T23:13:25.973Z,4.60
2017-09-04T23:15:53.542Z,4.30
2017-09-04T23:18:21.122Z,4.87
2017-09-04T23:20:48.691Z,3.80
2017-09-04T23:23:16.280Z,4.63
2017-09-04T23:25:43.853Z,4.55
2017-09-04T23:28:11.454Z,4.27
2017-09-04T23:30:39.043Z,4.40
2017-09-04T23:33:06.934Z,4.67
2017-09-04T23:35:34.696Z,4.20
2017-09-04T23:38:02.255Z,4.73
2017-09-04T23:40:29.840Z,3.90
2017-09-04T23:42:57.420Z,4.60
2017-09-04T23:45:25.017Z,4.00
2017-09-04T23:47:52.607Z,3.63
2017-09-04T23:50:20.192Z,4.12
2017-09-04T23:52:48.538Z,3.90
2017-09-04T23:55:16.135Z,3.93
2017-09-04T23:57:44.481Z,4.87
